Time;durP1;ratioP1;P1;durP2;ratioP2;P2;SDS_P1;SDS_P2;PMS_P1;PMS_P2;Temp;Humidity;BMP_temperature;BMP_pressure;BME280_temperature;BME280_humidity;BME280_pressure;Samples;Min_cycle;Max_cycle;Signal;HPM_P1;HPM_P2
2022/09/22 00:01:07;;;;;;;;;;;;;;;10.17;100.00;102549.97;5134691;27;19927;-37
2022/09/22 00:03:36;;;;;;;;;;;;;;;10.17;100.00;102552.75;5133904;27;20023;-37
2022/09/22 00:06:04;;;;;;;;;;;;;;;10.16;100.00;102549.13;5134791;27;19972;-36
2022/09/22 00:08:33;;;;;;;;;;;;;;;10.16;100.00;102549.13;5134619;27;19976;-34
2022/09/22 00:11:02;;;;;;;;;;;;;;;10.19;100.00;102545.03;5133735;27;19935;-34
2022/09/22 00:13:31;;;;;;;;;;;;;;;10.22;100.00;102547.28;5134349;27;19931;-35
2022/09/22 00:15:59;;;;;;;;;;;;;;;10.22;100.00;102538.91;5134584;27;19931;-35
2022/09/22 00:18:28;;;;;;;;;;;;;;;10.23;100.00;102544.22;5133613;27;20334;-37
2022/09/22 00:20:56;;;;;;;;;;;;;;;10.23;100.00;102541.44;5134395;27;19968;-35
2022/09/22 00:23:24;;;;;;;;;;;;;;;10.23;100.00;102535.84;5148063;27;19927;-36
2022/09/22 00:25:52;;;;;;;;;;;;;;;10.20;100.00;102532.72;5133427;27;19980;-36
2022/09/22 00:28:20;;;;;;;;;;;;;;;10.19;100.00;102531.88;5133999;27;19923;-35
2022/09/22 00:30:48;;;;;;;;;;;;;;;10.18;100.00;102534.94;5133922;27;19927;-34
2022/09/22 00:33:15;;;;;;;;;;;;;;;10.14;100.00;102540.16;5133279;27;19938;-33
2022/09/22 00:35:44;;;;;;;;;;;;;;;10.12;100.00;102535.94;5134130;27;19928;-37
2022/09/22 00:38:12;;;;;;;;;;;;;;;10.08;100.00;102537.53;5133842;27;19928;-33
2022/09/22 00:40:40;;;;;;;;;;;;;;;10.02;100.00;102531.88;5132626;27;19976;-32
2022/09/22 00:43:12;;;;;;;;;;;;;;;9.96;100.00;102532.06;5134301;27;19927;-34
2022/09/22 00:45:39;;;;;;;;;;;;;;;9.91;100.00;102529.19;5132826;27;19927;-35
2022/09/22 00:48:07;;;;;;;;;;;;;;;9.86;100.00;102531.88;5133890;27;19927;-36
2022/09/22 00:50:34;;;;;;;;;;;;;;;9.86;100.00;102537.47;5133410;27;19924;-36
2022/09/22 00:53:05;;;;;;;;;;;;;;;9.83;100.00;102522.09;5132861;27;19923;-37
2022/09/22 00:55:36;;;;;;;;;;;;;;;9.83;100.00;102524.88;5133772;27;19923;-33
2022/09/22 00:58:06;;;;;;;;;;;;;;;9.84;100.00;102520.13;5134003;27;20322;-34
2022/09/22 01:00:34;;;;;;;;;;;;;;;9.87;100.00;102523.28;5132603;27;19968;-32
2022/09/22 01:03:04;;;;;;;;;;;;;;;9.90;100.00;102516.34;5133364;27;19962;-31
2022/09/22 01:05:32;;;;;;;;;;;;;;;9.91;100.00;102513.31;5133273;27;19953;-31
2022/09/22 01:08:00;;;;;;;;;;;;;;;9.94;100.00;102517.53;5132819;27;19927;-30
2022/09/22 01:10:29;;;;;;;;;;;;;;;9.97;100.00;102512.28;5133082;27;19976;-31
2022/09/22 01:13:01;;;;;;;;;;;;;;;10.00;100.00;102506.19;5132172;27;19976;-33
2022/09/22 01:15:32;;;;;;;;;;;;;;;10.03;100.00;102502.03;5132380;27;20051;-31
2022/09/22 01:18:07;;;;;;;;;;;;;;;10.05;100.00;102497.06;5133089;27;19966;-32
2022/09/22 01:20:50;;;;;;;;;;;;;;;10.06;100.00;102498.75;5132441;27;19927;-33
2022/09/22 01:23:35;;;;;;;;;;;;;;;10.07;100.00;102492.06;5133329;27;19924;-32
2022/09/22 01:26:12;;;;;;;;;;;;;;;10.07;100.00;102492.06;5129143;27;20712;-33
2022/09/22 01:28:58;;;;;;;;;;;;;;;10.07;100.00;102483.69;5132303;27;20308;-33
2022/09/22 01:31:32;;;;;;;;;;;;;;;10.05;100.00;102485.06;5129122;27;20295;-33
2022/09/22 01:34:05;;;;;;;;;;;;;;;10.05;100.00;102487.84;5133186;27;20021;-33
2022/09/22 01:36:37;;;;;;;;;;;;;;;10.01;100.00;102482.78;5132022;27;19927;-31
2022/09/22 01:39:07;;;;;;;;;;;;;;;10.01;100.00;102482.78;5132838;27;19931;-31
2022/09/22 01:41:51;;;;;;;;;;;;;;;10.03;100.00;102485.31;5131715;27;19947;-35
2022/09/22 01:44:24;;;;;;;;;;;;;;;10.03;100.00;102488.94;5132910;27;20385;-33
2022/09/22 01:46:56;;;;;;;;;;;;;;;10.02;100.00;102484.47;5132666;27;19927;-31
2022/09/22 01:49:25;;;;;;;;;;;;;;;10.02;100.00;102478.88;5131889;27;19923;-31
2022/09/22 01:51:56;;;;;;;;;;;;;;;10.02;100.00;102478.88;5132688;27;19924;-31
2022/09/22 01:54:26;;;;;;;;;;;;;;;10.02;100.00;102473.31;5132725;27;20330;-32
2022/09/22 01:56:57;;;;;;;;;;;;;;;10.04;100.00;102473.06;5131555;27;20405;-34
2022/09/22 01:59:28;;;;;;;;;;;;;;;10.04;100.00;102475.84;5133069;27;19924;-32
2022/09/22 02:02:00;;;;;;;;;;;;;;;10.03;100.00;102469.41;5132353;27;19972;-34
2022/09/22 02:04:31;;;;;;;;;;;;;;;10.05;100.00;102468.31;5130467;27;19931;-31
2022/09/22 02:07:00;;;;;;;;;;;;;;;10.04;100.00;102456.31;5132619;27;19931;-32
2022/09/22 02:09:31;;;;;;;;;;;;;;;10.03;100.00;102466.63;5132294;27;19927;-33
2022/09/22 02:11:59;;;;;;;;;;;;;;;10.02;100.00;102456.56;5130147;27;19984;-32
2022/09/22 02:14:28;;;;;;;;;;;;;;;10.02;100.00;102459.38;5132303;28;19946;-32
2022/09/22 02:16:56;;;;;;;;;;;;;;;10.04;100.00;102461.91;5131485;27;19927;-32
2022/09/22 02:19:28;;;;;;;;;;;;;;;10.05;100.00;102468.31;5132225;28;19969;-33
2022/09/22 02:21:56;;;;;;;;;;;;;;;10.05;100.00;102457.16;5132398;28;19946;-32
2022/09/22 02:24:31;;;;;;;;;;;;;;;10.02;100.00;102453.78;5131715;28;20256;-33
2022/09/22 02:27:00;;;;;;;;;;;;;;;10.02;100.00;102456.56;5132237;28;19980;-32
2022/09/22 02:29:30;;;;;;;;;;;;;;;9.99;100.00;102445.94;5128975;27;19923;-32
2022/09/22 02:31:58;;;;;;;;;;;;;;;10.00;100.00;102452.34;5131660;28;20425;-34
2022/09/22 02:34:28;;;;;;;;;;;;;;;10.01;100.00;102451.25;5132172;28;19930;-32
2022/09/22 02:36:58;;;;;;;;;;;;;;;9.99;100.00;102443.13;5132398;28;19924;-33
2022/09/22 02:39:28;;;;;;;;;;;;;;;9.97;100.00;102438.94;5131043;28;20421;-32
2022/09/22 02:42:10;;;;;;;;;;;;;;;9.95;100.00;102439.19;5132703;28;19962;-33
2022/09/22 02:44:43;;;;;;;;;;;;;;;9.93;100.00;102441.41;5132055;27;19928;-33
2022/09/22 02:47:13;;;;;;;;;;;;;;;9.92;100.00;102439.72;5131675;28;19934;-33
2022/09/22 02:49:43;;;;;;;;;;;;;;;9.91;100.00;102431.59;5131829;27;19956;-33
2022/09/22 02:52:12;;;;;;;;;;;;;;;9.93;100.00;102440.56;5132478;27;20653;-32
2022/09/22 02:54:40;;;;;;;;;;;;;;;9.92;100.00;102445.28;5136019;27;20322;-33
2022/09/22 02:57:09;;;;;;;;;;;;;;;9.94;100.00;102431.94;5136159;27;19928;-35
2022/09/22 02:59:36;;;;;;;;;;;;;;;9.96;100.00;102426.09;5135156;27;19924;-33
2022/09/22 03:02:04;;;;;;;;;;;;;;;10.00;100.00;102424.47;5135504;27;19976;-33
2022/09/22 03:04:31;;;;;;;;;;;;;;;10.02;100.00;102425.91;5133610;27;19928;-37
2022/09/22 03:07:01;;;;;;;;;;;;;;;10.03;100.00;102424.78;5133332;27;19924;-33
2022/09/22 03:09:28;;;;;;;;;;;;;;;10.06;100.00;102425.38;5133420;27;20358;-31
2022/09/22 03:11:56;;;;;;;;;;;;;;;10.07;100.00;102416.75;5134151;27;20392;-34
2022/09/22 03:14:23;;;;;;;;;;;;;;;10.08;100.00;102412.03;5133790;27;19953;-32
2022/09/22 03:16:51;;;;;;;;;;;;;;;10.08;100.00;102412.03;5134172;27;20390;-32
2022/09/22 03:19:19;;;;;;;;;;;;;;;10.10;100.00;102416.25;5134371;27;20388;-33
2022/09/22 03:21:46;;;;;;;;;;;;;;;10.12;100.00;102410.41;5134763;27;20336;-32
2022/09/22 03:24:15;;;;;;;;;;;;;;;10.12;100.00;102421.56;5135283;27;19932;-36
2022/09/22 03:26:43;;;;;;;;;;;;;;;10.13;100.00;102412.94;5135259;27;19931;-32
2022/09/22 03:29:10;;;;;;;;;;;;;;;10.13;100.00;102415.75;5132825;27;19923;-32
2022/09/22 03:31:38;;;;;;;;;;;;;;;10.12;100.00;102414.06;5132952;27;19984;-32
2022/09/22 03:34:06;;;;;;;;;;;;;;;10.12;100.00;102407.63;5132701;27;20003;-33
2022/09/22 03:36:34;;;;;;;;;;;;;;;10.11;100.00;102412.38;5134764;27;19928;-32
2022/09/22 03:39:01;;;;;;;;;;;;;;;10.11;100.00;102408.72;5134684;27;19923;-32
2022/09/22 03:41:30;;;;;;;;;;;;;;;10.10;100.00;102416.25;5133560;27;20364;-32
2022/09/22 03:43:58;;;;;;;;;;;;;;;10.08;100.00;102406.44;5135135;27;19924;-32
2022/09/22 03:46:25;;;;;;;;;;;;;;;10.07;100.00;102407.56;5134867;27;19981;-33
2022/09/22 03:48:53;;;;;;;;;;;;;;;10.06;100.00;102411.44;5134598;27;19935;-33
2022/09/22 03:51:21;;;;;;;;;;;;;;;10.06;100.00;102414.22;5135277;27;19975;-34
2022/09/22 03:53:48;;;;;;;;;;;;;;;10.02;100.00;102400.78;5135024;27;19963;-31
2022/09/22 03:56:16;;;;;;;;;;;;;;;10.02;100.00;102399.94;5134214;27;20045;-33
2022/09/22 03:58:45;;;;;;;;;;;;;;;9.98;100.00;102402.44;5134941;27;20396;-32
2022/09/22 04:01:12;;;;;;;;;;;;;;;9.97;100.00;102400.75;5135044;27;19923;-32
2022/09/22 04:03:40;;;;;;;;;;;;;;;9.96;100.00;102392.63;5133884;27;19923;-31
2022/09/22 04:06:08;;;;;;;;;;;;;;;9.95;100.00;102405.75;5134775;27;20330;-32
2022/09/22 04:08:36;;;;;;;;;;;;;;;9.94;100.00;102401.25;5135158;27;19927;-32
2022/09/22 04:11:04;;;;;;;;;;;;;;;9.94;100.00;102400.41;5133727;27;19931;-32
2022/09/22 04:13:31;;;;;;;;;;;;;;;9.93;100.00;102398.72;5133545;27;19930;-31
2022/09/22 04:16:01;;;;;;;;;;;;;;;9.92;100.00;102395.09;5134518;27;20269;-31
2022/09/22 04:18:28;;;;;;;;;;;;;;;9.91;100.00;102393.41;5133791;27;19923;-33
2022/09/22 04:20:57;;;;;;;;;;;;;;;9.90;100.00;102396.44;5134375;27;19932;-32
2022/09/22 04:23:24;;;;;;;;;;;;;;;9.87;100.00;102392.22;5132101;27;20327;-32
2022/09/22 04:25:52;;;;;;;;;;;;;;;9.87;100.00;102396.97;5134216;27;19935;-32
2022/09/22 04:28:20;;;;;;;;;;;;;;;9.86;100.00;102393.31;5134238;27;19927;-33
2022/09/22 04:30:48;;;;;;;;;;;;;;;9.85;100.00;102396.38;5133704;27;19927;-33
2022/09/22 04:33:17;;;;;;;;;;;;;;;9.83;100.00;102393.00;5134008;27;20297;-32
2022/09/22 04:35:44;;;;;;;;;;;;;;;9.81;100.00;102393.25;5134339;27;19935;-31
2022/09/22 04:38:13;;;;;;;;;;;;;;;9.79;100.00;102394.63;5132962;27;20325;-31
2022/09/22 04:40:41;;;;;;;;;;;;;;;9.77;100.00;102392.09;5133998;27;20388;-33
2022/09/22 04:43:09;;;;;;;;;;;;;;;9.75;100.00;102397.06;5132548;27;19972;-33
2022/09/22 04:45:36;;;;;;;;;;;;;;;9.73;100.00;102393.69;5133308;27;19969;-32
2022/09/22 04:48:06;;;;;;;;;;;;;;;9.72;100.00;102392.00;5133592;27;20169;-33
2022/09/22 04:50:35;;;;;;;;;;;;;;;9.71;100.00;102383.91;5133605;27;20654;-34
2022/09/22 04:53:05;;;;;;;;;;;;;;;9.69;100.00;102386.94;5133129;27;19923;-35
2022/09/22 04:55:33;;;;;;;;;;;;;;;9.66;100.00;102385.50;5132550;27;19928;-34
2022/09/22 04:58:01;;;;;;;;;;;;;;;9.66;100.00;102387.44;5132452;27;19924;-33
2022/09/22 05:00:29;;;;;;;;;;;;;;;9.65;100.00;102385.75;5132310;27;19923;-32
2022/09/22 05:02:56;;;;;;;;;;;;;;;9.66;100.00;102376.31;5133281;27;19952;-33
2022/09/22 05:05:24;;;;;;;;;;;;;;;9.65;100.00;102385.75;5133840;27;20034;-33
2022/09/22 05:07:53;;;;;;;;;;;;;;;9.65;100.00;102375.47;5132684;27;20282;-32
2022/09/22 05:10:23;;;;;;;;;;;;;;;9.65;100.00;102380.19;5133113;27;19927;-33
2022/09/22 05:12:52;;;;;;;;;;;;;;;9.65;100.00;102382.97;5132458;27;19992;-32
2022/09/22 05:15:20;;;;;;;;;;;;;;;9.67;100.00;102384.41;5132061;27;19977;-33
2022/09/22 05:17:48;;;;;;;;;;;;;;;9.64;100.00;102379.34;5132752;27;19923;-33
2022/09/22 05:20:16;;;;;;;;;;;;;;;9.65;100.00;102377.41;5132069;27;20017;-31
2022/09/22 05:22:44;;;;;;;;;;;;;;;9.64;100.00;102376.56;5146857;27;19991;-34
2022/09/22 05:25:14;;;;;;;;;;;;;;;9.64;100.00;102382.13;5132337;27;20332;-32
2022/09/22 05:27:43;;;;;;;;;;;;;;;9.63;100.00;102374.03;5131159;27;19930;-32
2022/09/22 05:30:11;;;;;;;;;;;;;;;9.62;100.00;102381.53;5132133;27;20018;-34
2022/09/22 05:32:41;;;;;;;;;;;;;;;9.62;100.00;102380.69;5133011;27;19935;-32
2022/09/22 05:35:09;;;;;;;;;;;;;;;9.60;100.00;102388.47;5129897;27;19995;-33
2022/09/22 05:37:36;;;;;;;;;;;;;;;9.60;100.00;102377.31;5132239;27;19927;-34
2022/09/22 05:40:05;;;;;;;;;;;;;;;9.56;100.00;102377.00;5131715;27;19976;-35
2022/09/22 05:42:39;;;;;;;;;;;;;;;9.57;100.00;102383.44;5130889;27;20326;-34
2022/09/22 05:45:07;;;;;;;;;;;;;;;9.56;100.00;102378.94;5131461;27;20372;-36
2022/09/22 05:47:34;;;;;;;;;;;;;;;9.54;100.00;102383.94;5131920;27;19972;-36
2022/09/22 05:50:02;;;;;;;;;;;;;;;9.53;100.00;102376.66;5130686;27;19945;-36
2022/09/22 05:52:30;;;;;;;;;;;;;;;9.52;100.00;102381.41;5131640;27;19931;-33
2022/09/22 05:54:57;;;;;;;;;;;;;;;9.52;100.00;102380.56;5128577;27;20078;-35
2022/09/22 05:57:26;;;;;;;;;;;;;;;9.51;100.00;102378.88;5131158;27;19928;-34
2022/09/22 05:59:55;;;;;;;;;;;;;;;9.51;100.00;102382.50;5131397;27;20368;-33
2022/09/22 06:02:23;;;;;;;;;;;;;;;9.51;100.00;102378.88;5131130;27;19927;-33
2022/09/22 06:04:53;;;;;;;;;;;;;;;9.51;100.00;102373.28;5131756;27;19972;-33
2022/09/22 06:07:21;;;;;;;;;;;;;;;9.52;100.00;102374.97;5131658;27;20281;-32
2022/09/22 06:09:49;;;;;;;;;;;;;;;9.52;100.00;102373.03;5129947;27;19927;-36
2022/09/22 06:12:17;;;;;;;;;;;;;;;9.53;100.00;102374.72;5131566;27;19927;-33
2022/09/22 06:14:44;;;;;;;;;;;;;;;9.56;100.00;102378.94;5132559;28;19927;-36
2022/09/22 06:17:13;;;;;;;;;;;;;;;9.59;100.00;102384.84;5132102;28;19987;-34
2022/09/22 06:19:42;;;;;;;;;;;;;;;9.62;100.00;102383.47;5132260;28;19934;-33
2022/09/22 06:22:10;;;;;;;;;;;;;;;9.64;100.00;102378.50;5130824;27;20277;-33
2022/09/22 06:24:38;;;;;;;;;;;;;;;9.69;100.00;102381.38;5131948;28;20366;-36
2022/09/22 06:27:05;;;;;;;;;;;;;;;9.72;100.00;102385.59;5134853;27;20460;-37
2022/09/22 06:29:33;;;;;;;;;;;;;;;9.78;100.00;102373.44;5136876;27;19969;-33
2022/09/22 06:32:01;;;;;;;;;;;;;;;9.82;100.00;102380.16;5135912;27;20388;-32
2022/09/22 06:34:31;;;;;;;;;;;;;;;9.87;100.00;102383.00;5135901;27;19923;-35
2022/09/22 06:36:59;;;;;;;;;;;;;;;9.95;100.00;102377.00;5133683;27;19927;-35
2022/09/22 06:39:26;;;;;;;;;;;;;;;10.06;100.00;102377.97;5134386;27;19923;-36
2022/09/22 06:41:55;;;;;;;;;;;;;;;10.22;100.00;102379.88;5135790;27;19923;-33
2022/09/22 06:44:23;;;;;;;;;;;;;;;10.44;100.00;102377.09;5135360;27;19924;-37
2022/09/22 06:46:50;;;;;;;;;;;;;;;10.66;100.00;102370.38;5135887;27;19931;-33
2022/09/22 06:49:19;;;;;;;;;;;;;;;10.97;100.00;102376.28;5135911;27;19980;-34
2022/09/22 06:51:48;;;;;;;;;;;;;;;11.25;100.00;102366.72;5135482;27;19949;-33
2022/09/22 06:54:15;;;;;;;;;;;;;;;11.50;100.00;102369.72;5136899;27;19931;-34
2022/09/22 06:56:43;;;;;;;;;;;;;;;11.78;100.00;102362.97;5135864;27;19969;-35
2022/09/22 06:59:12;;;;;;;;;;;;;;;12.07;100.00;102358.63;5135218;27;19924;-34
2022/09/22 07:01:40;;;;;;;;;;;;;;;12.37;100.00;102365.47;5135921;27;19923;-34
2022/09/22 07:04:08;;;;;;;;;;;;;;;12.66;100.00;102366.66;5135874;27;19927;-35
2022/09/22 07:06:38;;;;;;;;;;;;;;;12.95;100.00;102368.97;5135316;27;19931;-37
2022/09/22 07:09:08;;;;;;;;;;;;;;;13.22;100.00;102366.75;5135959;27;19927;-34
2022/09/22 07:11:36;;;;;;;;;;;;;;;13.52;100.00;102367.88;5135872;27;20012;-33
2022/09/22 07:14:07;;;;;;;;;;;;;;;13.83;100.00;102361.06;5135061;27;19935;-33
2022/09/22 07:16:35;;;;;;;;;;;;;;;14.23;100.00;102368.50;5135576;27;19923;-33
2022/09/22 07:19:03;;;;;;;;;;;;;;;14.56;100.00;102367.00;5135456;27;20388;-33
2022/09/22 07:21:34;;;;;;;;;;;;;;;14.75;98.59;102367.16;5139542;27;19934;-35
2022/09/22 07:24:02;;;;;;;;;;;;;;;14.84;94.98;102362.59;5135280;27;19928;-33
2022/09/22 07:26:32;;;;;;;;;;;;;;;14.90;92.61;102360.59;5134962;27;19928;-35
2022/09/22 07:29:00;;;;;;;;;;;;;;;14.98;92.41;102362.81;5135237;27;19965;-33
2022/09/22 07:31:29;;;;;;;;;;;;;;;15.12;90.88;102358.19;5135559;27;19980;-33
2022/09/22 07:33:58;;;;;;;;;;;;;;;15.28;90.16;102350.44;5134629;27;19946;-33
2022/09/22 07:36:26;;;;;;;;;;;;;;;15.53;89.88;102355.84;5115064;28;19923;-34
2022/09/22 07:38:56;;;;;;;;;;;;;;;15.84;88.32;102350.75;5129075;27;19973;-35
2022/09/22 07:41:26;;;;;;;;;;;;;;;16.17;86.51;102358.28;5134356;27;19931;-35
2022/09/22 07:43:56;;;;;;;;;;;;;;;16.34;83.55;102366.22;5135228;27;19923;-34
2022/09/22 07:46:23;;;;;;;;;;;;;;;16.48;81.37;102364.34;5135334;27;19927;-38
2022/09/22 07:48:51;;;;;;;;;;;;;;;16.75;83.53;102360.91;5134287;27;20002;-34
2022/09/22 07:51:20;;;;;;;;;;;;;;;17.03;79.71;102352.56;5135036;27;19949;-34
2022/09/22 07:53:48;;;;;;;;;;;;;;;17.17;75.54;102350.66;5134647;27;19927;-35
2022/09/22 07:56:17;;;;;;;;;;;;;;;17.23;75.79;102360.69;5134141;27;19976;-34
2022/09/22 07:58:48;;;;;;;;;;;;;;;17.49;74.94;102356.28;5135176;27;19927;-34
2022/09/22 08:01:18;;;;;;;;;;;;;;;17.76;71.80;102363.19;5135143;27;19975;-34
2022/09/22 08:03:46;;;;;;;;;;;;;;;17.94;68.73;102356.59;5134679;27;19927;-34
2022/09/22 08:06:14;;;;;;;;;;;;;;;17.84;66.82;102356.78;5135081;27;19927;-35
2022/09/22 08:08:43;;;;;;;;;;;;;;;17.82;69.47;102361.91;5133779;27;19941;-34
2022/09/22 08:11:13;;;;;;;;;;;;;;;17.96;69.17;102351.50;5134743;27;19992;-35
2022/09/22 08:13:43;;;;;;;;;;;;;;;17.99;67.76;102356.47;5134768;27;19971;-34
2022/09/22 08:16:10;;;;;;;;;;;;;;;17.92;68.71;102349.59;5133758;27;19927;-36
2022/09/22 08:18:39;;;;;;;;;;;;;;;18.05;66.89;102352.41;5134520;27;19955;-34
2022/09/22 08:21:07;;;;;;;;;;;;;;;17.97;66.32;102349.50;5134142;27;20432;-35
2022/09/22 08:23:36;;;;;;;;;;;;;;;17.86;66.82;102348.84;5134295;27;20006;-33
2022/09/22 08:26:04;;;;;;;;;;;;;;;18.04;67.95;102352.72;5134072;27;19935;-33
2022/09/22 08:28:32;;;;;;;;;;;;;;;18.10;66.13;102345.84;5134534;27;20311;-35
2022/09/22 08:31:00;;;;;;;;;;;;;;;18.28;69.02;102344.03;5133361;27;19927;-39
2022/09/22 08:33:29;;;;;;;;;;;;;;;18.71;66.82;102342.53;5134254;27;19972;-37
2022/09/22 08:36:02;;;;;;;;;;;;;;;19.03;65.88;102338.63;5134019;27;20350;-36
2022/09/22 08:38:31;;;;;;;;;;;;;;;19.28;61.20;102340.84;5112738;28;19924;-42
2022/09/22 08:41:06;;;;;;;;;;;;;;;19.35;60.58;102337.56;5128218;27;19968;-39
2022/09/22 08:43:34;;;;;;;;;;;;;;;19.61;59.43;102341.41;5132571;27;19963;-36
2022/09/22 08:46:03;;;;;;;;;;;;;;;19.91;58.95;102342.56;5133432;27;20459;-37
2022/09/22 08:54:14;;;;;;;;;;;;;;;20.13;56.15;102355.81;5113348;28;19969;-40
2022/09/22 08:56:44;;;;;;;;;;;;;;;20.34;54.91;102346.72;5130038;27;19996;-34
2022/09/22 08:59:15;;;;;;;;;;;;;;;20.55;55.37;102356.31;5112765;28;19931;-34
2022/09/22 09:01:50;;;;;;;;;;;;;;;20.99;57.80;102353.16;5128796;27;19930;-39
2022/09/22 09:04:44;;;;;;;;;;;;;;;21.60;50.09;102356.81;5133705;27;19984;-36
2022/09/22 09:07:16;;;;;;;;;;;;;;;21.85;51.67;102354.22;5133388;27;20380;-34
2022/09/22 09:09:50;;;;;;;;;;;;;;;22.03;49.85;102350.16;5133785;27;19928;-39
2022/09/22 09:12:24;;;;;;;;;;;;;;;22.28;48.26;102343.53;5132801;27;20330;-34
2022/09/22 09:15:04;;;;;;;;;;;;;;;22.46;48.67;102352.78;5132347;27;20276;-38
2022/09/22 09:17:34;;;;;;;;;;;;;;;22.42;43.69;102356.66;5133131;27;20384;-36
2022/09/22 09:20:09;;;;;;;;;;;;;;;22.33;45.65;102353.88;5132801;27;19946;-44
2022/09/22 09:22:41;;;;;;;;;;;;;;;22.60;48.51;102358.22;5134991;27;19953;-34
2022/09/22 09:25:21;;;;;;;;;;;;;;;22.89;45.79;102349.69;5133453;27;20014;-37
2022/09/22 09:27:53;;;;;;;;;;;;;;;23.25;45.23;102343.31;5132076;27;19931;-39
2022/09/22 09:30:21;;;;;;;;;;;;;;;23.23;41.26;102337.13;5133524;27;19923;-34
2022/09/22 09:32:51;;;;;;;;;;;;;;;22.77;41.21;102343.94;5132128;27;19927;-38
2022/09/22 09:35:22;;;;;;;;;;;;;;;22.71;45.58;102341.59;5133107;27;19923;-34
2022/09/22 09:37:53;;;;;;;;;;;;;;;22.86;44.73;102341.00;5132960;27;20402;-40
2022/09/22 09:40:21;;;;;;;;;;;;;;;23.13;46.96;102339.59;5132172;27;19923;-39
2022/09/22 09:42:53;;;;;;;;;;;;;;;23.57;44.02;102335.19;5132785;27;19927;-36
2022/09/22 09:45:25;;;;;;;;;;;;;;;23.94;42.06;102333.22;5133119;27;19928;-34
2022/09/22 09:48:05;;;;;;;;;;;;;;;24.19;43.45;102340.56;5131974;27;19928;-43
2022/09/22 09:50:33;;;;;;;;;;;;;;;24.31;40.88;102332.06;5133017;27;19968;-42
2022/09/22 09:53:02;;;;;;;;;;;;;;;24.41;41.87;102318.50;5132919;27;19976;-36
2022/09/22 09:55:32;;;;;;;;;;;;;;;24.62;42.22;102320.00;5132132;27;19923;-41
2022/09/22 09:58:07;;;;;;;;;;;;;;;24.78;39.12;102314.38;5132946;27;19934;-38
2022/09/22 10:00:51;;;;;;;;;;;;;;;24.47;36.68;102323.59;5132903;27;19927;-34
2022/09/22 10:03:23;;;;;;;;;;;;;;;23.97;39.43;102312.56;5132583;27;20433;-37
2022/09/22 10:05:57;;;;;;;;;;;;;;;23.90;42.78;102309.44;5133120;27;19935;-35
2022/09/22 10:08:27;;;;;;;;;;;;;;;23.95;40.23;102307.19;5131735;27;20059;-39
2022/09/22 10:10:57;;;;;;;;;;;;;;;23.72;38.36;102310.84;5132425;27;20044;-36
2022/09/22 10:13:29;;;;;;;;;;;;;;;23.38;38.85;102309.19;5131679;27;20446;-33
2022/09/22 10:16:04;;;;;;;;;;;;;;;23.08;42.17;102311.34;5132114;28;19979;-34
2022/09/22 10:18:34;;;;;;;;;;;;;;;22.96;39.22;102315.81;5132691;28;20015;-39
2022/09/22 10:21:03;;;;;;;;;;;;;;;22.75;40.79;102309.25;5132587;27;19963;-36
2022/09/22 10:23:32;;;;;;;;;;;;;;;22.91;41.84;102304.63;5144606;27;19930;-35
2022/09/22 10:26:25;;;;;;;;;;;;;;;23.21;42.00;102301.66;5132228;28;19927;-34
2022/09/22 10:29:23;;;;;;;;;;;;;;;23.25;39.26;102306.28;5132262;28;19927;-42
2022/09/22 10:32:01;;;;;;;;;;;;;;;23.12;39.78;102300.91;5048902;28;19932;-35
2022/09/22 10:34:30;;;;;;;;;;;;;;;23.03;40.90;102303.81;5119128;28;19923;-40
2022/09/22 10:36:58;;;;;;;;;;;;;;;23.25;43.22;102300.59;5131599;28;20407;-35
2022/09/22 10:39:32;;;;;;;;;;;;;;;23.60;42.33;102298.22;5132048;28;19980;-36
2022/09/22 10:42:01;;;;;;;;;;;;;;;23.80;40.00;102292.78;5132160;27;20269;-33
2022/09/22 10:44:31;;;;;;;;;;;;;;;24.03;40.85;102294.00;5131144;28;20396;-34
2022/09/22 10:47:13;;;;;;;;;;;;;;;24.33;40.73;102288.91;5132554;27;20311;-35
2022/09/22 10:49:49;;;;;;;;;;;;;;;24.66;40.40;102291.56;5132198;28;19968;-37
2022/09/22 10:52:20;;;;;;;;;;;;;;;24.86;39.96;102290.56;5131771;28;19987;-35
2022/09/22 10:55:08;;;;;;;;;;;;;;;24.70;39.51;102286.81;5132094;28;19927;-35
2022/09/22 10:57:47;;;;;;;;;;;;;;;24.42;39.57;102291.63;5131619;28;19931;-34
2022/09/22 11:00:16;;;;;;;;;;;;;;;24.28;40.67;102289.97;5132130;28;20040;-35
2022/09/22 11:03:04;;;;;;;;;;;;;;;24.12;40.28;102283.31;5131998;28;19923;-42
2022/09/22 11:14:13;;;;;;;;;;;;;;;23.83;39.05;102255.84;5134638;27;19972;-37
2022/09/22 11:16:52;;;;;;;;;;;;;;;23.84;41.04;102260.38;5135709;27;19927;-37
2022/09/22 11:19:36;;;;;;;;;;;;;;;23.90;40.82;102252.41;5135443;27;19931;-31
2022/09/22 11:22:13;;;;;;;;;;;;;;;24.08;40.48;102250.97;5139400;27;19959;-35
2022/09/22 11:24:55;;;;;;;;;;;;;;;24.21;40.75;102246.91;5136082;27;19924;-40
2022/09/22 11:27:30;;;;;;;;;;;;;;;24.45;39.63;102250.94;5131611;27;20336;-34
2022/09/22 11:30:07;;;;;;;;;;;;;;;24.64;40.42;102245.44;5135526;27;19934;-34
2022/09/22 11:32:49;;;;;;;;;;;;;;;24.87;38.03;102248.56;5131779;27;20234;-34
2022/09/22 11:35:44;;;;;;;;;;;;;;;24.81;37.06;102245.13;5135376;27;19983;-36
2022/09/22 11:38:20;;;;;;;;;;;;;;;24.75;37.40;102242.91;5087460;27;19923;-38
2022/09/22 11:40:59;;;;;;;;;;;;;;;24.71;38.87;102239.94;5134619;27;19968;-38
2022/09/22 11:43:35;;;;;;;;;;;;;;;24.71;37.29;102237.91;5125180;27;19992;-34
2022/09/22 11:46:08;;;;;;;;;;;;;;;24.72;38.29;102235.91;5135207;27;19928;-37
2022/09/22 11:48:45;;;;;;;;;;;;;;;24.83;38.80;102230.47;5124441;27;19995;-37
2022/09/22 11:51:34;;;;;;;;;;;;;;;24.93;39.02;102221.41;5134994;27;20372;-35
2022/09/22 11:54:14;;;;;;;;;;;;;;;24.96;37.33;102220.72;5125942;27;20383;-40
2022/09/22 11:56:43;;;;;;;;;;;;;;;24.73;37.14;102218.41;5134962;27;19924;-45
2022/09/22 11:59:21;;;;;;;;;;;;;;;24.58;38.30;102215.50;5135325;27;19980;-38
2022/09/22 12:01:49;;;;;;;;;;;;;;;24.45;39.38;102211.00;5133809;27;20368;-37
2022/09/22 12:04:21;;;;;;;;;;;;;;;24.19;36.61;102208.53;5134799;27;20387;-34
2022/09/22 12:06:51;;;;;;;;;;;;;;;24.07;39.52;102208.56;5134812;27;19931;-34
2022/09/22 12:09:25;;;;;;;;;;;;;;;24.14;39.03;102200.25;5133885;27;19968;-38
2022/09/22 12:11:54;;;;;;;;;;;;;;;24.24;39.55;102194.88;5134644;27;19973;-36
2022/09/22 12:14:25;;;;;;;;;;;;;;;24.33;37.56;102189.88;5123262;27;20456;-37
2022/09/22 12:16:57;;;;;;;;;;;;;;;24.43;39.44;102190.56;5133947;27;19923;-38
2022/09/22 12:19:30;;;;;;;;;;;;;;;24.47;38.34;102191.50;5134630;27;20467;-35
2022/09/22 12:22:03;;;;;;;;;;;;;;;24.37;39.21;102190.81;5133994;27;19932;-33
2022/09/22 12:24:32;;;;;;;;;;;;;;;24.19;39.05;102175.13;5134116;27;19924;-35
2022/09/22 12:27:09;;;;;;;;;;;;;;;24.16;38.28;102177.91;5134309;27;20400;-34
2022/09/22 12:29:40;;;;;;;;;;;;;;;24.02;39.74;102173.38;5133734;27;19923;-33
2022/09/22 12:32:20;;;;;;;;;;;;;;;23.95;38.68;102163.78;5134311;27;19927;-33
2022/09/22 12:34:47;;;;;;;;;;;;;;;23.77;39.78;102162.41;5132346;27;19935;-44
2022/09/22 12:37:27;;;;;;;;;;;;;;;23.55;39.54;102166.56;5133332;27;20388;-41
2022/09/22 12:39:56;;;;;;;;;;;;;;;23.40;40.75;102153.78;5131978;27;19931;-34
2022/09/22 12:42:25;;;;;;;;;;;;;;;23.33;38.92;102156.41;5134308;27;19935;-42
2022/09/22 12:44:57;;;;;;;;;;;;;;;23.14;41.66;102157.00;5133030;27;19923;-40
2022/09/22 12:47:31;;;;;;;;;;;;;;;23.06;42.38;102143.69;5134722;27;20014;-37
2022/09/22 12:49:59;;;;;;;;;;;;;;;23.07;42.96;102136.81;5132475;27;20312;-33
2022/09/22 12:52:46;;;;;;;;;;;;;;;22.90;40.16;102135.00;5134241;27;19923;-38
2022/09/22 12:55:17;;;;;;;;;;;;;;;22.74;42.70;102136.81;5133514;27;19927;-37
2022/09/22 12:57:46;;;;;;;;;;;;;;;22.66;42.29;102134.88;5133219;27;19966;-39
2022/09/22 13:00:32;;;;;;;;;;;;;;;22.53;41.51;102141.72;5133413;27;19957;-36
2022/09/22 13:03:00;;;;;;;;;;;;;;;22.29;43.32;102137.59;5133599;27;20384;-40
2022/09/22 13:05:35;;;;;;;;;;;;;;;22.28;44.02;102130.22;5131619;27;20380;-33